sensor_id;sensor_type;location;lat;lon;timestamp;P1;durP1;ratioP1;P2;durP2;ratioP2
48861;SDS011;34681;49.188;-0.374;2023-02-08T00:01:09;22.23;;;19.40;;
48861;SDS011;34681;49.188;-0.374;2023-02-08T00:03:36;27.23;;;19.60;;
48861;SDS011;34681;49.188;-0.374;2023-02-08T00:06:02;26.10;;;18.53;;
48861;SDS011;34681;49.188;-0.374;2023-02-08T00:08:29;27.03;;;20.97;;
48861;SDS011;34681;49.188;-0.374;2023-02-08T00:10:54;23.03;;;19.77;;
48861;SDS011;34681;49.188;-0.374;2023-02-08T00:13:20;26.07;;;20.80;;
48861;SDS011;34681;49.188;-0.374;2023-02-08T00:15:45;22.60;;;19.20;;
48861;SDS011;34681;49.188;-0.374;2023-02-08T00:18:11;24.90;;;19.73;;
48861;SDS011;34681;49.188;-0.374;2023-02-08T00:20:37;25.40;;;19.27;;
48861;SDS011;34681;49.188;-0.374;2023-02-08T00:23:04;29.07;;;20.33;;
48861;SDS011;34681;49.188;-0.374;2023-02-08T00:25:30;26.57;;;20.33;;
48861;SDS011;34681;49.188;-0.374;2023-02-08T00:27:55;27.87;;;20.03;;
48861;SDS011;34681;49.188;-0.374;2023-02-08T00:30:21;24.90;;;19.70;;
48861;SDS011;34681;49.188;-0.374;2023-02-08T00:32:46;29.17;;;21.10;;
48861;SDS011;34681;49.188;-0.374;2023-02-08T00:35:11;24.00;;;19.33;;
48861;SDS011;34681;49.188;-0.374;2023-02-08T00:37:37;23.47;;;19.43;;
48861;SDS011;34681;49.188;-0.374;2023-02-08T00:40:02;25.73;;;18.70;;
48861;SDS011;34681;49.188;-0.374;2023-02-08T00:42:29;25.83;;;19.47;;
48861;SDS011;34681;49.188;-0.374;2023-02-08T00:44:55;23.90;;;18.63;;
48861;SDS011;34681;49.188;-0.374;2023-02-08T00:47:21;24.20;;;20.43;;
48861;SDS011;34681;49.188;-0.374;2023-02-08T00:49:46;24.27;;;19.53;;
48861;SDS011;34681;49.188;-0.374;2023-02-08T00:52:12;21.90;;;18.80;;
48861;SDS011;34681;49.188;-0.374;2023-02-08T00:54:37;28.13;;;20.87;;
48861;SDS011;34681;49.188;-0.374;2023-02-08T00:57:02;25.70;;;19.07;;
48861;SDS011;34681;49.188;-0.374;2023-02-08T00:59:28;24.73;;;19.23;;
48861;SDS011;34681;49.188;-0.374;2023-02-08T01:01:53;22.70;;;19.83;;
48861;SDS011;34681;49.188;-0.374;2023-02-08T01:04:19;22.87;;;19.60;;
48861;SDS011;34681;49.188;-0.374;2023-02-08T01:06:44;22.33;;;18.73;;
48861;SDS011;34681;49.188;-0.374;2023-02-08T01:09:09;25.77;;;18.70;;
48861;SDS011;34681;49.188;-0.374;2023-02-08T01:11:35;25.50;;;20.03;;
48861;SDS011;34681;49.188;-0.374;2023-02-08T01:14:00;23.17;;;18.37;;
48861;SDS011;34681;49.188;-0.374;2023-02-08T01:16:27;21.20;;;18.07;;
48861;SDS011;34681;49.188;-0.374;2023-02-08T01:18:57;22.93;;;19.17;;
48861;SDS011;34681;49.188;-0.374;2023-02-08T01:21:26;24.27;;;18.23;;
48861;SDS011;34681;49.188;-0.374;2023-02-08T01:23:53;20.30;;;17.53;;
48861;SDS011;34681;49.188;-0.374;2023-02-08T01:26:19;24.60;;;18.63;;
48861;SDS011;34681;49.188;-0.374;2023-02-08T01:28:46;23.60;;;18.40;;
48861;SDS011;34681;49.188;-0.374;2023-02-08T01:31:13;21.00;;;16.80;;
48861;SDS011;34681;49.188;-0.374;2023-02-08T01:33:41;19.73;;;17.70;;
48861;SDS011;34681;49.188;-0.374;2023-02-08T01:36:07;26.43;;;19.33;;
48861;SDS011;34681;49.188;-0.374;2023-02-08T01:38:33;22.40;;;17.93;;
48861;SDS011;34681;49.188;-0.374;2023-02-08T01:41:00;22.17;;;18.37;;
48861;SDS011;34681;49.188;-0.374;2023-02-08T01:43:27;26.00;;;20.10;;
48861;SDS011;34681;49.188;-0.374;2023-02-08T01:45:57;22.23;;;18.40;;
48861;SDS011;34681;49.188;-0.374;2023-02-08T01:53:19;24.73;;;19.00;;
48861;SDS011;34681;49.188;-0.374;2023-02-08T01:55:47;21.83;;;19.50;;
48861;SDS011;34681;49.188;-0.374;2023-02-08T01:58:15;21.17;;;18.20;;
48861;SDS011;34681;49.188;-0.374;2023-02-08T02:00:43;25.30;;;20.20;;
48861;SDS011;34681;49.188;-0.374;2023-02-08T02:03:09;23.47;;;18.43;;
48861;SDS011;34681;49.188;-0.374;2023-02-08T02:05:37;23.80;;;18.73;;
48861;SDS011;34681;49.188;-0.374;2023-02-08T02:08:09;20.67;;;17.40;;
48861;SDS011;34681;49.188;-0.374;2023-02-08T02:10:36;25.60;;;19.63;;
48861;SDS011;34681;49.188;-0.374;2023-02-08T02:13:05;20.57;;;17.67;;
48861;SDS011;34681;49.188;-0.374;2023-02-08T02:15:34;23.10;;;19.93;;
48861;SDS011;34681;49.188;-0.374;2023-02-08T02:18:00;23.30;;;18.60;;
48861;SDS011;34681;49.188;-0.374;2023-02-08T02:29:19;22.37;;;18.33;;
48861;SDS011;34681;49.188;-0.374;2023-02-08T02:34:56;24.43;;;17.60;;
48861;SDS011;34681;49.188;-0.374;2023-02-08T02:42:59;25.07;;;18.53;;
48861;SDS011;34681;49.188;-0.374;2023-02-08T02:51:31;23.83;;;19.00;;
48861;SDS011;34681;49.188;-0.374;2023-02-08T02:54:02;24.63;;;18.83;;
48861;SDS011;34681;49.188;-0.374;2023-02-08T02:56:40;20.23;;;18.00;;
48861;SDS011;34681;49.188;-0.374;2023-02-08T02:59:09;23.00;;;18.63;;
48861;SDS011;34681;49.188;-0.374;2023-02-08T03:01:37;22.57;;;19.00;;
48861;SDS011;34681;49.188;-0.374;2023-02-08T03:04:11;23.00;;;18.97;;
48861;SDS011;34681;49.188;-0.374;2023-02-08T03:09:59;23.40;;;18.87;;
48861;SDS011;34681;49.188;-0.374;2023-02-08T03:12:28;25.80;;;17.80;;
48861;SDS011;34681;49.188;-0.374;2023-02-08T03:23:29;23.53;;;19.20;;
48861;SDS011;34681;49.188;-0.374;2023-02-08T03:31:44;25.90;;;19.90;;
48861;SDS011;34681;49.188;-0.374;2023-02-08T03:37:36;24.13;;;20.03;;
48861;SDS011;34681;49.188;-0.374;2023-02-08T03:40:13;25.57;;;20.17;;
48861;SDS011;34681;49.188;-0.374;2023-02-08T03:42:43;24.47;;;19.83;;
48861;SDS011;34681;49.188;-0.374;2023-02-08T03:45:14;24.67;;;19.70;;
48861;SDS011;34681;49.188;-0.374;2023-02-08T03:47:44;23.83;;;20.80;;
48861;SDS011;34681;49.188;-0.374;2023-02-08T03:50:13;32.47;;;21.80;;
48861;SDS011;34681;49.188;-0.374;2023-02-08T03:52:41;32.67;;;23.00;;
48861;SDS011;34681;49.188;-0.374;2023-02-08T03:55:17;29.97;;;24.20;;
48861;SDS011;34681;49.188;-0.374;2023-02-08T03:58:20;30.93;;;25.50;;
48861;SDS011;34681;49.188;-0.374;2023-02-08T04:00:53;31.90;;;24.73;;
48861;SDS011;34681;49.188;-0.374;2023-02-08T04:03:23;31.00;;;23.63;;
48861;SDS011;34681;49.188;-0.374;2023-02-08T04:05:52;30.80;;;23.30;;
48861;SDS011;34681;49.188;-0.374;2023-02-08T04:08:18;29.90;;;22.57;;
48861;SDS011;34681;49.188;-0.374;2023-02-08T04:10:44;26.07;;;23.30;;
48861;SDS011;34681;49.188;-0.374;2023-02-08T04:13:10;27.80;;;23.37;;
48861;SDS011;34681;49.188;-0.374;2023-02-08T04:15:36;28.50;;;25.40;;
48861;SDS011;34681;49.188;-0.374;2023-02-08T04:18:01;34.47;;;27.07;;
48861;SDS011;34681;49.188;-0.374;2023-02-08T04:20:27;29.47;;;25.10;;
48861;SDS011;34681;49.188;-0.374;2023-02-08T04:22:52;31.07;;;24.87;;
48861;SDS011;34681;49.188;-0.374;2023-02-08T04:25:17;28.20;;;23.47;;
48861;SDS011;34681;49.188;-0.374;2023-02-08T04:27:43;29.90;;;25.17;;
48861;SDS011;34681;49.188;-0.374;2023-02-08T04:30:08;32.80;;;24.20;;
48861;SDS011;34681;49.188;-0.374;2023-02-08T04:32:34;26.80;;;23.00;;
48861;SDS011;34681;49.188;-0.374;2023-02-08T04:35:00;29.77;;;22.67;;
48861;SDS011;34681;49.188;-0.374;2023-02-08T04:37:25;28.83;;;23.37;;
48861;SDS011;34681;49.188;-0.374;2023-02-08T04:39:50;25.03;;;21.90;;
48861;SDS011;34681;49.188;-0.374;2023-02-08T04:42:16;25.63;;;21.80;;
48861;SDS011;34681;49.188;-0.374;2023-02-08T04:44:41;24.67;;;21.97;;
48861;SDS011;34681;49.188;-0.374;2023-02-08T04:47:07;27.47;;;21.43;;
48861;SDS011;34681;49.188;-0.374;2023-02-08T04:49:32;23.37;;;20.97;;
48861;SDS011;34681;49.188;-0.374;2023-02-08T04:51:58;29.47;;;22.60;;
48861;SDS011;34681;49.188;-0.374;2023-02-08T04:54:23;25.40;;;21.23;;
48861;SDS011;34681;49.188;-0.374;2023-02-08T04:56:49;27.53;;;21.67;;
48861;SDS011;34681;49.188;-0.374;2023-02-08T04:59:14;24.90;;;20.47;;
48861;SDS011;34681;49.188;-0.374;2023-02-08T05:01:40;25.20;;;20.60;;
48861;SDS011;34681;49.188;-0.374;2023-02-08T05:04:05;24.83;;;19.90;;
48861;SDS011;34681;49.188;-0.374;2023-02-08T05:06:30;32.50;;;21.20;;
48861;SDS011;34681;49.188;-0.374;2023-02-08T05:08:56;22.63;;;19.47;;
48861;SDS011;34681;49.188;-0.374;2023-02-08T05:11:22;24.03;;;19.10;;
48861;SDS011;34681;49.188;-0.374;2023-02-08T05:13:49;21.80;;;18.90;;
48861;SDS011;34681;49.188;-0.374;2023-02-08T05:16:15;24.33;;;20.50;;
48861;SDS011;34681;49.188;-0.374;2023-02-08T05:18:40;22.53;;;18.90;;
48861;SDS011;34681;49.188;-0.374;2023-02-08T05:21:06;22.80;;;18.00;;
48861;SDS011;34681;49.188;-0.374;2023-02-08T05:23:31;22.40;;;18.83;;
48861;SDS011;34681;49.188;-0.374;2023-02-08T05:25:57;20.93;;;17.40;;
48861;SDS011;34681;49.188;-0.374;2023-02-08T05:28:23;22.77;;;17.80;;
48861;SDS011;34681;49.188;-0.374;2023-02-08T05:30:48;25.53;;;19.80;;
48861;SDS011;34681;49.188;-0.374;2023-02-08T05:33:14;24.07;;;19.00;;
48861;SDS011;34681;49.188;-0.374;2023-02-08T05:35:39;25.83;;;17.60;;
48861;SDS011;34681;49.188;-0.374;2023-02-08T05:38:05;26.70;;;19.67;;
48861;SDS011;34681;49.188;-0.374;2023-02-08T05:40:31;19.13;;;16.30;;
48861;SDS011;34681;49.188;-0.374;2023-02-08T05:42:57;22.60;;;17.83;;
48861;SDS011;34681;49.188;-0.374;2023-02-08T05:45:23;22.33;;;18.27;;
48861;SDS011;34681;49.188;-0.374;2023-02-08T05:47:49;23.07;;;17.90;;
48861;SDS011;34681;49.188;-0.374;2023-02-08T05:50:14;22.50;;;18.53;;
48861;SDS011;34681;49.188;-0.374;2023-02-08T05:52:40;23.40;;;18.43;;
48861;SDS011;34681;49.188;-0.374;2023-02-08T05:55:05;23.43;;;17.73;;
48861;SDS011;34681;49.188;-0.374;2023-02-08T05:57:31;23.33;;;19.03;;
48861;SDS011;34681;49.188;-0.374;2023-02-08T05:59:57;22.17;;;18.27;;
48861;SDS011;34681;49.188;-0.374;2023-02-08T06:02:22;24.30;;;18.40;;
48861;SDS011;34681;49.188;-0.374;2023-02-08T06:04:48;22.70;;;17.17;;
48861;SDS011;34681;49.188;-0.374;2023-02-08T06:07:13;22.07;;;18.50;;
48861;SDS011;34681;49.188;-0.374;2023-02-08T06:09:38;19.67;;;15.93;;
48861;SDS011;34681;49.188;-0.374;2023-02-08T06:12:04;24.53;;;18.30;;
48861;SDS011;34681;49.188;-0.374;2023-02-08T06:14:29;26.03;;;17.60;;
48861;SDS011;34681;49.188;-0.374;2023-02-08T06:16:55;21.10;;;17.17;;
48861;SDS011;34681;49.188;-0.374;2023-02-08T06:19:20;22.67;;;18.13;;
48861;SDS011;34681;49.188;-0.374;2023-02-08T06:21:46;22.80;;;17.57;;
48861;SDS011;34681;49.188;-0.374;2023-02-08T06:24:11;26.33;;;18.70;;
48861;SDS011;34681;49.188;-0.374;2023-02-08T06:26:37;22.40;;;19.47;;
48861;SDS011;34681;49.188;-0.374;2023-02-08T06:29:03;22.87;;;18.30;;
48861;SDS011;34681;49.188;-0.374;2023-02-08T06:31:28;26.53;;;19.27;;
48861;SDS011;34681;49.188;-0.374;2023-02-08T06:33:54;22.30;;;18.33;;
48861;SDS011;34681;49.188;-0.374;2023-02-08T06:36:19;22.87;;;18.30;;
48861;SDS011;34681;49.188;-0.374;2023-02-08T06:38:44;23.00;;;19.40;;
48861;SDS011;34681;49.188;-0.374;2023-02-08T06:41:10;23.80;;;19.70;;
48861;SDS011;34681;49.188;-0.374;2023-02-08T06:43:35;25.00;;;18.97;;
48861;SDS011;34681;49.188;-0.374;2023-02-08T06:46:01;21.80;;;18.90;;
48861;SDS011;34681;49.188;-0.374;2023-02-08T06:48:29;23.10;;;19.50;;
48861;SDS011;34681;49.188;-0.374;2023-02-08T06:50:55;22.77;;;19.50;;
48861;SDS011;34681;49.188;-0.374;2023-02-08T06:53:20;28.10;;;19.17;;
48861;SDS011;34681;49.188;-0.374;2023-02-08T06:55:47;22.30;;;18.73;;
48861;SDS011;34681;49.188;-0.374;2023-02-08T06:58:15;23.93;;;19.73;;
48861;SDS011;34681;49.188;-0.374;2023-02-08T07:00:41;25.80;;;18.70;;
48861;SDS011;34681;49.188;-0.374;2023-02-08T07:03:07;24.60;;;19.10;;
48861;SDS011;34681;49.188;-0.374;2023-02-08T07:05:33;21.83;;;18.63;;
48861;SDS011;34681;49.188;-0.374;2023-02-08T07:07:59;23.10;;;19.50;;
48861;SDS011;34681;49.188;-0.374;2023-02-08T07:10:25;20.77;;;17.90;;
48861;SDS011;34681;49.188;-0.374;2023-02-08T07:12:50;23.00;;;19.00;;
48861;SDS011;34681;49.188;-0.374;2023-02-08T07:15:15;25.83;;;19.70;;
48861;SDS011;34681;49.188;-0.374;2023-02-08T07:17:41;22.60;;;17.00;;
48861;SDS011;34681;49.188;-0.374;2023-02-08T07:20:07;27.70;;;19.40;;
48861;SDS011;34681;49.188;-0.374;2023-02-08T07:22:33;23.63;;;19.20;;
48861;SDS011;34681;49.188;-0.374;2023-02-08T07:24:58;25.10;;;21.30;;
48861;SDS011;34681;49.188;-0.374;2023-02-08T07:27:23;23.80;;;20.63;;
48861;SDS011;34681;49.188;-0.374;2023-02-08T07:29:49;32.67;;;20.57;;
48861;SDS011;34681;49.188;-0.374;2023-02-08T07:32:14;23.10;;;20.40;;
48861;SDS011;34681;49.188;-0.374;2023-02-08T07:34:40;27.60;;;22.50;;
48861;SDS011;34681;49.188;-0.374;2023-02-08T07:37:05;28.53;;;22.57;;
48861;SDS011;34681;49.188;-0.374;2023-02-08T07:39:31;25.40;;;20.13;;
48861;SDS011;34681;49.188;-0.374;2023-02-08T07:41:56;29.23;;;19.60;;
48861;SDS011;34681;49.188;-0.374;2023-02-08T07:44:22;22.03;;;17.30;;
48861;SDS011;34681;49.188;-0.374;2023-02-08T07:46:47;26.53;;;18.50;;
48861;SDS011;34681;49.188;-0.374;2023-02-08T07:49:13;28.23;;;19.97;;
48861;SDS011;34681;49.188;-0.374;2023-02-08T07:51:38;22.97;;;18.27;;
48861;SDS011;34681;49.188;-0.374;2023-02-08T07:54:03;24.70;;;18.73;;
48861;SDS011;34681;49.188;-0.374;2023-02-08T07:56:29;30.97;;;20.90;;
48861;SDS011;34681;49.188;-0.374;2023-02-08T07:58:54;41.57;;;24.80;;
48861;SDS011;34681;49.188;-0.374;2023-02-08T08:01:19;30.90;;;21.17;;
48861;SDS011;34681;49.188;-0.374;2023-02-08T08:03:45;36.00;;;20.20;;
48861;SDS011;34681;49.188;-0.374;2023-02-08T08:06:10;38.13;;;23.53;;
48861;SDS011;34681;49.188;-0.374;2023-02-08T08:08:36;29.63;;;20.70;;
48861;SDS011;34681;49.188;-0.374;2023-02-08T08:11:01;31.83;;;23.00;;
48861;SDS011;34681;49.188;-0.374;2023-02-08T08:13:26;30.13;;;22.17;;
48861;SDS011;34681;49.188;-0.374;2023-02-08T08:15:52;32.17;;;21.83;;
48861;SDS011;34681;49.188;-0.374;2023-02-08T08:18:17;30.60;;;22.47;;
48861;SDS011;34681;49.188;-0.374;2023-02-08T08:20:42;28.23;;;19.90;;
48861;SDS011;34681;49.188;-0.374;2023-02-08T08:23:08;26.43;;;20.13;;
48861;SDS011;34681;49.188;-0.374;2023-02-08T08:25:33;29.70;;;21.87;;
48861;SDS011;34681;49.188;-0.374;2023-02-08T08:27:59;26.37;;;20.53;;
48861;SDS011;34681;49.188;-0.374;2023-02-08T08:30:25;29.03;;;22.50;;
48861;SDS011;34681;49.188;-0.374;2023-02-08T08:32:51;31.93;;;21.87;;
48861;SDS011;34681;49.188;-0.374;2023-02-08T08:35:16;27.40;;;19.50;;
48861;SDS011;34681;49.188;-0.374;2023-02-08T08:37:42;23.03;;;20.30;;
48861;SDS011;34681;49.188;-0.374;2023-02-08T08:40:07;23.50;;;19.10;;
48861;SDS011;34681;49.188;-0.374;2023-02-08T08:42:33;28.27;;;20.60;;
48861;SDS011;34681;49.188;-0.374;2023-02-08T08:45:00;26.30;;;20.00;;
48861;SDS011;34681;49.188;-0.374;2023-02-08T08:47:26;24.33;;;19.67;;
48861;SDS011;34681;49.188;-0.374;2023-02-08T08:49:51;29.40;;;21.17;;
48861;SDS011;34681;49.188;-0.374;2023-02-08T08:52:17;26.87;;;21.97;;
48861;SDS011;34681;49.188;-0.374;2023-02-08T08:54:42;29.20;;;21.10;;
48861;SDS011;34681;49.188;-0.374;2023-02-08T08:57:07;29.03;;;21.90;;
48861;SDS011;34681;49.188;-0.374;2023-02-08T08:59:33;28.20;;;21.77;;
48861;SDS011;34681;49.188;-0.374;2023-02-08T09:01:58;32.40;;;23.00;;
48861;SDS011;34681;49.188;-0.374;2023-02-08T09:04:24;30.67;;;22.60;;
48861;SDS011;34681;49.188;-0.374;2023-02-08T09:06:50;31.50;;;23.53;;
48861;SDS011;34681;49.188;-0.374;2023-02-08T09:09:17;26.80;;;23.30;;
48861;SDS011;34681;49.188;-0.374;2023-02-08T09:11:43;29.70;;;20.57;;
48861;SDS011;34681;49.188;-0.374;2023-02-08T09:14:09;29.37;;;22.37;;
48861;SDS011;34681;49.188;-0.374;2023-02-08T09:16:34;26.87;;;23.40;;
48861;SDS011;34681;49.188;-0.374;2023-02-08T09:19:03;30.03;;;23.37;;
48861;SDS011;34681;49.188;-0.374;2023-02-08T09:21:30;26.70;;;22.30;;
48861;SDS011;34681;49.188;-0.374;2023-02-08T09:23:55;28.87;;;22.93;;
48861;SDS011;34681;49.188;-0.374;2023-02-08T09:26:20;28.03;;;22.53;;
48861;SDS011;34681;49.188;-0.374;2023-02-08T09:28:46;26.03;;;21.53;;
48861;SDS011;34681;49.188;-0.374;2023-02-08T09:31:23;24.73;;;21.60;;
48861;SDS011;34681;49.188;-0.374;2023-02-08T09:33:50;30.93;;;24.00;;
48861;SDS011;34681;49.188;-0.374;2023-02-08T09:36:18;26.23;;;22.17;;
48861;SDS011;34681;49.188;-0.374;2023-02-08T09:38:44;27.50;;;22.50;;
48861;SDS011;34681;49.188;-0.374;2023-02-08T09:47:13;27.30;;;22.10;;
48861;SDS011;34681;49.188;-0.374;2023-02-08T09:49:53;23.17;;;19.60;;
48861;SDS011;34681;49.188;-0.374;2023-02-08T09:52:26;23.33;;;20.83;;
48861;SDS011;34681;49.188;-0.374;2023-02-08T09:54:58;26.77;;;21.97;;
48861;SDS011;34681;49.188;-0.374;2023-02-08T09:57:28;23.93;;;19.40;;
48861;SDS011;34681;49.188;-0.374;2023-02-08T10:00:05;22.67;;;19.90;;
48861;SDS011;34681;49.188;-0.374;2023-02-08T10:02:37;28.90;;;21.40;;
48861;SDS011;34681;49.188;-0.374;2023-02-08T10:05:16;23.17;;;20.57;;
48861;SDS011;34681;49.188;-0.374;2023-02-08T10:07:45;25.60;;;22.10;;
48861;SDS011;34681;49.188;-0.374;2023-02-08T10:10:15;26.23;;;21.03;;
48861;SDS011;34681;49.188;-0.374;2023-02-08T10:12:54;25.47;;;21.03;;
48861;SDS011;34681;49.188;-0.374;2023-02-08T10:15:38;33.23;;;21.53;;
48861;SDS011;34681;49.188;-0.374;2023-02-08T10:26:33;28.70;;;20.97;;
48861;SDS011;34681;49.188;-0.374;2023-02-08T10:32:19;21.17;;;18.80;;
48861;SDS011;34681;49.188;-0.374;2023-02-08T10:35:05;23.80;;;20.23;;
48861;SDS011;34681;49.188;-0.374;2023-02-08T10:37:37;29.20;;;20.40;;
48861;SDS011;34681;49.188;-0.374;2023-02-08T10:43:08;24.90;;;20.87;;
48861;SDS011;34681;49.188;-0.374;2023-02-08T10:51:14;28.93;;;22.80;;
48861;SDS011;34681;49.188;-0.374;2023-02-08T10:53:42;25.93;;;20.73;;
48861;SDS011;34681;49.188;-0.374;2023-02-08T10:56:13;33.17;;;22.50;;
48861;SDS011;34681;49.188;-0.374;2023-02-08T10:58:59;26.70;;;21.40;;
48861;SDS011;34681;49.188;-0.374;2023-02-08T11:01:29;24.87;;;22.00;;
48861;SDS011;34681;49.188;-0.374;2023-02-08T11:04:05;29.73;;;22.70;;
48861;SDS011;34681;49.188;-0.374;2023-02-08T11:06:35;28.90;;;23.60;;
48861;SDS011;34681;49.188;-0.374;2023-02-08T11:09:01;26.80;;;23.20;;
48861;SDS011;34681;49.188;-0.374;2023-02-08T11:11:32;25.23;;;21.03;;
48861;SDS011;34681;49.188;-0.374;2023-02-08T11:14:07;23.70;;;20.00;;
48861;SDS011;34681;49.188;-0.374;2023-02-08T11:16:38;29.77;;;21.77;;
48861;SDS011;34681;49.188;-0.374;2023-02-08T11:19:05;28.07;;;21.67;;
48861;SDS011;34681;49.188;-0.374;2023-02-08T11:21:39;26.70;;;21.10;;
48861;SDS011;34681;49.188;-0.374;2023-02-08T11:26:41;23.63;;;19.00;;
48861;SDS011;34681;49.188;-0.374;2023-02-08T11:29:14;23.63;;;20.07;;
48861;SDS011;34681;49.188;-0.374;2023-02-08T11:32:30;21.87;;;19.57;;
48861;SDS011;34681;49.188;-0.374;2023-02-08T11:34:43;24.00;;;19.33;;
48861;SDS011;34681;49.188;-0.374;2023-02-08T11:39:45;24.90;;;19.20;;
48861;SDS011;34681;49.188;-0.374;2023-02-08T11:42:19;24.73;;;18.20;;
48861;SDS011;34681;49.188;-0.374;2023-02-08T11:44:49;27.73;;;19.70;;
48861;SDS011;34681;49.188;-0.374;2023-02-08T11:47:17;26.47;;;22.70;;
48861;SDS011;34681;49.188;-0.374;2023-02-08T11:49:53;27.40;;;21.90;;
48861;SDS011;34681;49.188;-0.374;2023-02-08T11:52:22;29.73;;;18.07;;
48861;SDS011;34681;49.188;-0.374;2023-02-08T11:54:51;21.03;;;17.77;;
48861;SDS011;34681;49.188;-0.374;2023-02-08T11:57:24;24.00;;;19.93;;
48861;SDS011;34681;49.188;-0.374;2023-02-08T12:00:11;22.70;;;18.77;;
48861;SDS011;34681;49.188;-0.374;2023-02-08T12:02:42;21.17;;;17.40;;
48861;SDS011;34681;49.188;-0.374;2023-02-08T12:05:11;21.23;;;17.97;;
48861;SDS011;34681;49.188;-0.374;2023-02-08T12:15:46;23.13;;;16.80;;
48861;SDS011;34681;49.188;-0.374;2023-02-08T12:21:42;22.33;;;18.47;;
48861;SDS011;34681;49.188;-0.374;2023-02-08T12:24:16;22.33;;;17.70;;
48861;SDS011;34681;49.188;-0.374;2023-02-08T12:54:03;26.33;;;18.17;;
48861;SDS011;34681;49.188;-0.374;2023-02-08T12:56:35;19.67;;;17.43;;
48861;SDS011;34681;49.188;-0.374;2023-02-08T12:59:04;20.50;;;16.73;;
48861;SDS011;34681;49.188;-0.374;2023-02-08T13:01:39;19.67;;;17.47;;
48861;SDS011;34681;49.188;-0.374;2023-02-08T13:04:17;19.70;;;16.83;;
48861;SDS011;34681;49.188;-0.374;2023-02-08T13:06:48;20.37;;;17.47;;
48861;SDS011;34681;49.188;-0.374;2023-02-08T13:14:33;19.53;;;17.47;;
48861;SDS011;34681;49.188;-0.374;2023-02-08T13:17:04;21.57;;;18.10;;
48861;SDS011;34681;49.188;-0.374;2023-02-08T13:22:38;19.70;;;17.23;;
48861;SDS011;34681;49.188;-0.374;2023-02-08T13:25:06;19.43;;;17.33;;
48861;SDS011;34681;49.188;-0.374;2023-02-08T13:27:39;17.87;;;15.97;;
48861;SDS011;34681;49.188;-0.374;2023-02-08T13:30:04;17.57;;;15.70;;
48861;SDS011;34681;49.188;-0.374;2023-02-08T13:32:39;21.77;;;17.30;;
48861;SDS011;34681;49.188;-0.374;2023-02-08T13:38:03;19.10;;;17.10;;
48861;SDS011;34681;49.188;-0.374;2023-02-08T13:40:33;20.47;;;18.37;;
48861;SDS011;34681;49.188;-0.374;2023-02-08T13:43:04;18.93;;;16.40;;
48861;SDS011;34681;49.188;-0.374;2023-02-08T13:45:41;19.10;;;17.20;;
48861;SDS011;34681;49.188;-0.374;2023-02-08T13:48:11;20.03;;;17.90;;
48861;SDS011;34681;49.188;-0.374;2023-02-08T13:53:08;23.03;;;19.53;;
48861;SDS011;34681;49.188;-0.374;2023-02-08T13:58:03;19.40;;;17.20;;
48861;SDS011;34681;49.188;-0.374;2023-02-08T14:03:27;17.10;;;15.30;;
48861;SDS011;34681;49.188;-0.374;2023-02-08T14:05:54;18.53;;;16.53;;
48861;SDS011;34681;49.188;-0.374;2023-02-08T14:18:53;20.20;;;17.80;;
48861;SDS011;34681;49.188;-0.374;2023-02-08T14:21:25;21.37;;;19.03;;
48861;SDS011;34681;49.188;-0.374;2023-02-08T14:24:16;18.90;;;16.80;;
48861;SDS011;34681;49.188;-0.374;2023-02-08T14:26:45;23.67;;;18.73;;
48861;SDS011;34681;49.188;-0.374;2023-02-08T14:29:18;20.23;;;18.00;;
48861;SDS011;34681;49.188;-0.374;2023-02-08T14:31:48;18.53;;;16.53;;
48861;SDS011;34681;49.188;-0.374;2023-02-08T14:34:37;20.73;;;17.17;;
48861;SDS011;34681;49.188;-0.374;2023-02-08T14:39:30;18.20;;;14.80;;
48861;SDS011;34681;49.188;-0.374;2023-02-08T14:41:59;18.20;;;16.20;;
48861;SDS011;34681;49.188;-0.374;2023-02-08T14:47:02;18.60;;;15.67;;
48861;SDS011;34681;49.188;-0.374;2023-02-08T14:49:48;19.20;;;15.63;;
48861;SDS011;34681;49.188;-0.374;2023-02-08T14:52:20;16.33;;;14.43;;
48861;SDS011;34681;49.188;-0.374;2023-02-08T14:59:49;18.47;;;16.53;;
48861;SDS011;34681;49.188;-0.374;2023-02-08T15:02:19;16.83;;;14.73;;
48861;SDS011;34681;49.188;-0.374;2023-02-08T15:04:48;20.27;;;16.97;;
48861;SDS011;34681;49.188;-0.374;2023-02-08T15:09:42;18.90;;;15.87;;
48861;SDS011;34681;49.188;-0.374;2023-02-08T15:15:01;19.17;;;16.57;;
48861;SDS011;34681;49.188;-0.374;2023-02-08T15:17:45;16.43;;;14.73;;
48861;SDS011;34681;49.188;-0.374;2023-02-08T15:20:17;15.23;;;13.63;;
48861;SDS011;34681;49.188;-0.374;2023-02-08T15:22:45;16.33;;;14.63;;
48861;SDS011;34681;49.188;-0.374;2023-02-08T15:25:24;16.80;;;15.07;;
48861;SDS011;34681;49.188;-0.374;2023-02-08T15:27:52;15.67;;;13.03;;
48861;SDS011;34681;49.188;-0.374;2023-02-08T15:30:28;16.83;;;14.37;;
48861;SDS011;34681;49.188;-0.374;2023-02-08T15:32:58;16.10;;;14.40;;
48861;SDS011;34681;49.188;-0.374;2023-02-08T15:35:25;16.53;;;13.63;;
48861;SDS011;34681;49.188;-0.374;2023-02-08T15:37:51;17.83;;;16.03;;
48861;SDS011;34681;49.188;-0.374;2023-02-08T15:42:53;21.90;;;18.30;;
48861;SDS011;34681;49.188;-0.374;2023-02-08T15:45:25;23.57;;;19.47;;
48861;SDS011;34681;49.188;-0.374;2023-02-08T15:47:54;23.83;;;20.03;;
48861;SDS011;34681;49.188;-0.374;2023-02-08T15:50:21;25.40;;;21.63;;
48861;SDS011;34681;49.188;-0.374;2023-02-08T15:52:47;24.70;;;21.13;;
48861;SDS011;34681;49.188;-0.374;2023-02-08T15:55:19;23.70;;;21.20;;
48861;SDS011;34681;49.188;-0.374;2023-02-08T15:57:45;24.63;;;21.37;;
48861;SDS011;34681;49.188;-0.374;2023-02-08T16:00:20;24.27;;;20.97;;
48861;SDS011;34681;49.188;-0.374;2023-02-08T16:02:50;24.53;;;21.87;;
48861;SDS011;34681;49.188;-0.374;2023-02-08T16:05:19;29.07;;;23.37;;
48861;SDS011;34681;49.188;-0.374;2023-02-08T16:07:46;27.93;;;21.03;;
48861;SDS011;34681;49.188;-0.374;2023-02-08T16:10:29;27.30;;;23.67;;
48861;SDS011;34681;49.188;-0.374;2023-02-08T16:13:13;26.30;;;21.77;;
48861;SDS011;34681;49.188;-0.374;2023-02-08T16:15:44;28.53;;;22.40;;
48861;SDS011;34681;49.188;-0.374;2023-02-08T16:23:54;27.93;;;22.37;;
48861;SDS011;34681;49.188;-0.374;2023-02-08T16:26:28;24.10;;;21.60;;
48861;SDS011;34681;49.188;-0.374;2023-02-08T16:29:03;26.73;;;23.87;;
48861;SDS011;34681;49.188;-0.374;2023-02-08T16:31:31;26.23;;;23.40;;
48861;SDS011;34681;49.188;-0.374;2023-02-08T16:34:00;24.90;;;22.20;;
48861;SDS011;34681;49.188;-0.374;2023-02-08T16:36:35;26.50;;;22.10;;
48861;SDS011;34681;49.188;-0.374;2023-02-08T16:41:57;26.40;;;22.40;;
48861;SDS011;34681;49.188;-0.374;2023-02-08T16:44:31;26.60;;;21.90;;
48861;SDS011;34681;49.188;-0.374;2023-02-08T16:46:58;25.53;;;20.50;;
48861;SDS011;34681;49.188;-0.374;2023-02-08T16:49:24;24.70;;;22.10;;
48861;SDS011;34681;49.188;-0.374;2023-02-08T16:51:54;24.83;;;21.80;;
48861;SDS011;34681;49.188;-0.374;2023-02-08T16:54:21;23.97;;;21.47;;
48861;SDS011;34681;49.188;-0.374;2023-02-08T16:56:49;23.67;;;21.17;;
48861;SDS011;34681;49.188;-0.374;2023-02-08T16:59:19;28.70;;;22.00;;
48861;SDS011;34681;49.188;-0.374;2023-02-08T17:01:45;25.00;;;21.83;;
48861;SDS011;34681;49.188;-0.374;2023-02-08T17:04:14;29.70;;;22.60;;
48861;SDS011;34681;49.188;-0.374;2023-02-08T17:06:40;25.73;;;23.00;;
48861;SDS011;34681;49.188;-0.374;2023-02-08T17:09:07;29.10;;;23.47;;
48861;SDS011;34681;49.188;-0.374;2023-02-08T17:11:36;26.03;;;22.47;;